• Join FlightAware (Why Join?)
  • Login
  • US Flag 
11:24PM EDT


 

Airport Tracker/Info


-or-


 

Live Flight TrackerFlight Track Log ✈ CDG4626 ✈ 21-Jul-2013 ✈ ZYTL / DLC - ZSQD / TAO

Flight Track Log - Related Links

Times and Time Zones

All times are in EDT time to prevent confusion due to time zone crossing. See the CDG4626 flight status page for this flight to view local times or setup timezone preferences in your user account.

Time Position Orientation Groundspeed Altitude Reporting Facility
EDT Latitude Longitude Course Direction KTS MPH feet Rate Location/Type
11:07AM 38.1006 121.1557 199° South  Level Estimated
11:08AM 38.0044 121.1137 199° South  Level Estimated
11:09AM 37.9082 121.0718 199° South  Level Estimated
11:10AM 37.8353 121.0402 199° South  Level Estimated
11:11AM 37.7625 121.0087 199° South  Level Estimated
11:12AM 37.6897 120.9772 199° South  Level Estimated
11:13AM 37.6168 120.9457 199° South  Level Estimated
11:14AM 37.5440 120.9144 199° South  Level Estimated
11:15AM 37.4711 120.8831 199° South  Level Estimated
11:16AM 37.3983 120.8518 199° South  Level Estimated
11:17AM 37.3254 120.8206 199° South  Level Estimated
11:18AM 37.2525 120.7895 199° South  Level Estimated
11:19AM 37.1796 120.7585 199° South  Level Estimated
11:20AM 37.1067 120.7274 199° South  Level Estimated
11:21AM 37.0338 120.6965 199° South  Level Estimated
11:22AM 36.9609 120.6656 199° South  Level Estimated
11:23AM 36.8879 120.6348 199° South  Level Estimated
11:24AM 36.8150 120.6040 199° South  Level Estimated
11:25AM 36.7421 120.5733 199° South  Level Estimated
11:26AM 36.6691 120.5426 199° South  Level Estimated
11:27AM 36.5961 120.5121 199° South  Level Estimated
11:28AM 36.5232 120.4815 199° South  Level Estimated
11:29AM 36.4502 120.4510 199° South  Level Estimated
11:30AM 36.3772 120.4206 199° South  Level Estimated
11:31AM 36.3042 120.3903 199° South  Level Estimated
11:32AM 36.2661 120.3744 199° South  Level Estimated
11:33AM 36.2661 120.3744 238° Southwest  Level Estimated
11:34AM 36.2661 120.3744 238° Southwest  Level Estimated
11:35AM 36.2661 120.3744 238° Southwest  Level Estimated
11:36AM 36.2661 120.3744 238° Southwest  Level Estimated
11:37AM 36.2661 120.3744 238° Southwest  Level Estimated
11:38AM 36.2661 120.3744 238° Southwest  Level Estimated
11:39AM 36.2661 120.3744 238° Southwest  Level Estimated
11:40AM 36.2661 120.3744 238° Southwest  Level Estimated
11:41AM 36.2661 120.3744 238° Southwest  Level Estimated
11:42AM 36.2661 120.3744 238° Southwest  Level Estimated
11:43AM 36.2661 120.3744 238° Southwest  Level Estimated
11:44AM 36.2661 120.3744 238° Southwest  Level Estimated
11:45AM 36.2661 120.3744 238° Southwest  Level Estimated
11:46AM 36.2661 120.3744 238° Southwest  Level Estimated
11:47AM 36.2661 120.3744 238° Southwest  Level Estimated